Shenandoah National Park, VA

12:06 PM EDT on May 28, 2015 (GMT -0400)
Redwood Lakes | | Change Station
CLOSE
Current Station
Personal Weather Station
Location: Culpeper, VA
Elevation: 416 ft
Nearby Weather Stations

Elev 416 ft 38.47 °N, 78.02 °W | Updated 26 seconds ago

Clear
Clear
86.5 °F
Feels Like 88 °F
N
0.2
Wind Variable Wind from East
Gusts 2.5 mph

Today
High -- | Low -- °F
--% Chance of Precip.
Yesterday
High -- | Low -- °F
Precip. -- in
5:51 AM 8:27 PM
Waxing Gibbous, 77% visible
Pressure 30.21 in
Visibility 10.0 miles
Clouds Clear
Heat Index 88 °F
Dew Point 65 °F
Humidity 48%
Rainfall 0.00 in
Snow Depth Not available.
UV 7.0 out of 12
Pollen 7.40 out of 12
Air Quality Not available.
Flu Activity No Activity
METAR KCJR 281555Z AUTO 00000KT 10SM CLR 29/17 A3021 RMK AO2 T02890174 PWINO

More Conditions Fewer Conditions

Pressure 30.21 in
Visibility 10.0 miles
Clouds Clear
Heat Index 88 °F
Dew Point 65 °F
Humidity 48%
Rainfall 0.00 in
Snow Depth Not available.
UV 7.0 out of 12
Pollen 7.40 out of 12
Air Quality Not available.
Flu Activity No Activity
METAR KCJR 281555Z AUTO 00000KT 10SM CLR 29/17 A3021 RMK AO2 T02890174 PWINO

More Conditions Fewer Conditions

10-Day Weather Forecast

Almanac

Astronomy

May. 28, 2015 Rise Set
Actual Time
Civil Twilight
Nautical Twilight
Astronomical Twilight
Moon
Length of Visible Light
Length of Day
Tomorrow will be .
, % of the Moon is Illuminated

Today's Extremes

State Highs State Lows

Community

WunderPhotos

Upload Photos

1,825,002 photos uploaded!

WunderBlogs® & News

Nearby

Air Quality

  Air Quality AQ Index Pollutant
Not available.

Snow Depth

Station Depth Elevation

Earthquake Activity

City Distance Mag. Time & Date
Minimum magnitude displayed is 2.5.

Coastal Water Temperatures

Place Temperature

Stations

Nearby Weather Stations

Station Location Temp. Windchill Dew Point Humidity Wind Precip. Elev Updated Type